createdAt,value
2023-06-21T00:00:11.948Z,19.59
2023-06-21T00:02:39.268Z,19.58
2023-06-21T00:05:07.158Z,19.57
2023-06-21T00:07:33.837Z,19.50
2023-06-21T00:10:00.474Z,19.43
2023-06-21T00:12:27.389Z,19.38
2023-06-21T00:14:54.222Z,19.36
2023-06-21T00:17:20.978Z,19.35
2023-06-21T00:19:47.867Z,19.34
2023-06-21T00:22:17.209Z,19.31
2023-06-21T00:24:43.830Z,19.31
2023-06-21T00:27:10.898Z,19.25
2023-06-21T00:29:38.588Z,19.23
2023-06-21T00:32:06.220Z,19.22
2023-06-21T00:34:32.962Z,19.18
2023-06-21T00:36:59.807Z,19.14
2023-06-21T00:39:26.617Z,19.14
2023-06-21T00:41:53.100Z,19.14
2023-06-21T00:44:22.131Z,19.11
2023-06-21T00:46:51.688Z,19.08
2023-06-21T00:49:20.093Z,19.04
2023-06-21T00:51:47.291Z,18.99
2023-06-21T00:54:14.750Z,19.03
2023-06-21T00:56:41.602Z,18.98
2023-06-21T00:59:08.334Z,18.96
2023-06-21T01:01:34.708Z,18.94
2023-06-21T01:04:01.763Z,18.89
2023-06-21T01:06:34.893Z,18.86
2023-06-21T01:09:19.881Z,18.87
2023-06-21T01:12:08.237Z,18.87
2023-06-21T01:15:10.722Z,18.88
2023-06-21T01:17:41.410Z,18.87
2023-06-21T01:20:14.448Z,18.89
2023-06-21T01:22:53.251Z,18.94
2023-06-21T01:26:01.418Z,18.94
2023-06-21T01:28:46.627Z,18.97
2023-06-21T01:31:17.676Z,18.95
2023-06-21T01:33:45.645Z,18.95
2023-06-21T01:36:12.683Z,18.95
2023-06-21T01:38:39.426Z,18.94
2023-06-21T01:41:06.240Z,18.92
2023-06-21T01:43:32.908Z,18.93
2023-06-21T01:46:02.121Z,18.91
2023-06-21T01:48:31.017Z,18.95
2023-06-21T01:50:59.273Z,18.95
2023-06-21T01:53:26.089Z,18.95
2023-06-21T01:55:54.292Z,18.97
2023-06-21T01:58:21.227Z,18.96
2023-06-21T02:00:48.039Z,18.97
2023-06-21T02:03:15.715Z,19.01
2023-06-21T02:05:43.838Z,19.01
2023-06-21T02:08:15.674Z,19.01
2023-06-21T02:10:46.493Z,19.01
2023-06-21T02:13:15.608Z,19.02
2023-06-21T02:15:42.295Z,19.05
2023-06-21T02:18:11.457Z,19.06
2023-06-21T02:20:38.299Z,19.07
2023-06-21T02:23:05.902Z,19.09
2023-06-21T02:25:34.935Z,19.09
2023-06-21T02:28:01.424Z,19.12
2023-06-21T02:30:28.186Z,19.11
2023-06-21T02:32:55.154Z,19.15
2023-06-21T02:35:21.876Z,19.16
2023-06-21T02:37:48.331Z,19.18
2023-06-21T02:40:15.272Z,19.18
2023-06-21T02:42:43.193Z,19.22
2023-06-21T02:45:10.521Z,19.22
2023-06-21T02:47:37.075Z,19.21
2023-06-21T02:50:04.597Z,19.21
2023-06-21T02:52:31.737Z,19.22
2023-06-21T02:54:59.115Z,19.20
2023-06-21T02:57:25.940Z,19.22
2023-06-21T02:59:52.563Z,19.20
2023-06-21T03:02:19.143Z,19.26
2023-06-21T03:04:45.931Z,19.22
2023-06-21T03:07:12.566Z,19.20
2023-06-21T03:09:39.425Z,19.20
2023-06-21T03:12:06.507Z,19.20
2023-06-21T03:14:33.312Z,19.18
2023-06-21T03:16:59.848Z,19.20
2023-06-21T03:19:26.589Z,19.08
2023-06-21T03:21:53.473Z,19.11
2023-06-21T03:24:20.774Z,19.08
2023-06-21T03:26:47.548Z,19.10
2023-06-21T03:29:14.056Z,19.05
2023-06-21T03:31:41.036Z,19.02
2023-06-21T03:34:08.264Z,19.05
2023-06-21T03:36:34.908Z,19.06
2023-06-21T03:39:01.634Z,19.06
2023-06-21T03:41:28.477Z,19.06
2023-06-21T03:43:55.109Z,19.09
2023-06-21T03:46:22.013Z,19.11
2023-06-21T03:48:48.764Z,19.12
2023-06-21T03:51:17.894Z,19.12
2023-06-21T03:53:44.807Z,19.14
2023-06-21T03:56:11.579Z,19.13
2023-06-21T03:58:38.042Z,19.12
2023-06-21T04:01:04.754Z,19.13
2023-06-21T04:03:31.626Z,19.15
2023-06-21T04:05:58.243Z,19.19
2023-06-21T04:08:24.764Z,19.17
2023-06-21T04:10:51.511Z,19.15
2023-06-21T04:13:18.108Z,19.15
2023-06-21T04:15:44.905Z,19.14
2023-06-21T04:18:11.878Z,19.14
2023-06-21T04:20:38.942Z,19.13
2023-06-21T04:23:05.549Z,19.15
2023-06-21T04:25:34.524Z,19.18
2023-06-21T04:28:01.082Z,19.17
2023-06-21T04:30:27.931Z,19.18
2023-06-21T04:32:54.797Z,19.19
2023-06-21T04:35:21.492Z,19.22
2023-06-21T04:37:49.135Z,19.24
2023-06-21T04:40:18.614Z,19.32
2023-06-21T04:42:50.083Z,19.42
2023-06-21T04:45:17.777Z,19.46
2023-06-21T04:47:45.230Z,19.51
2023-06-21T04:50:21.277Z,19.58
2023-06-21T04:52:48.612Z,19.66
2023-06-21T04:55:15.572Z,19.67
2023-06-21T04:57:43.090Z,19.68
2023-06-21T05:00:10.076Z,19.76
2023-06-21T05:02:36.538Z,19.78
2023-06-21T05:05:03.144Z,19.89
2023-06-21T05:07:29.581Z,19.96
2023-06-21T05:09:56.021Z,20.02
2023-06-21T05:12:22.398Z,20.07
2023-06-21T05:14:48.810Z,20.18
2023-06-21T05:17:15.464Z,20.22
2023-06-21T05:19:41.893Z,20.34
2023-06-21T05:22:08.328Z,20.42
2023-06-21T05:24:34.871Z,20.46
2023-06-21T05:27:01.298Z,20.58
2023-06-21T05:29:27.734Z,20.66
2023-06-21T05:31:54.127Z,20.69
2023-06-21T05:34:20.530Z,20.76
2023-06-21T05:36:46.926Z,20.85
2023-06-21T05:39:13.356Z,20.92
2023-06-21T05:41:39.756Z,20.97
2023-06-21T05:44:06.330Z,21.03
2023-06-21T05:46:32.819Z,21.17
2023-06-21T05:48:59.234Z,21.21
2023-06-21T05:51:25.616Z,21.21
2023-06-21T05:53:51.990Z,21.21
2023-06-21T05:56:18.423Z,21.23
2023-06-21T05:58:44.830Z,21.29
2023-06-21T06:01:23.496Z,21.30
2023-06-21T06:03:50.966Z,21.39
2023-06-21T06:06:18.900Z,21.47
2023-06-21T06:08:45.335Z,21.47
2023-06-21T06:11:11.787Z,21.57
2023-06-21T06:13:38.227Z,21.79
2023-06-21T06:16:04.760Z,21.72
2023-06-21T06:18:31.034Z,21.81
2023-06-21T06:20:57.405Z,21.84
2023-06-21T06:23:23.795Z,22.02
2023-06-21T06:25:50.239Z,22.08
2023-06-21T06:28:16.774Z,22.20
2023-06-21T06:30:43.134Z,22.22
2023-06-21T06:33:09.563Z,22.20
2023-06-21T06:35:35.961Z,22.09
2023-06-21T06:38:02.408Z,22.08
2023-06-21T06:40:29.072Z,22.11
2023-06-21T06:42:55.665Z,22.13
2023-06-21T06:45:22.041Z,22.26
2023-06-21T06:47:48.476Z,22.32
2023-06-21T06:50:14.911Z,22.28
2023-06-21T06:52:41.299Z,22.38
2023-06-21T06:55:08.103Z,22.38
2023-06-21T06:57:38.053Z,22.54
2023-06-21T07:00:07.612Z,22.61
2023-06-21T07:02:34.034Z,22.71
2023-06-21T07:05:00.605Z,22.75
2023-06-21T07:07:27.167Z,22.85
2023-06-21T07:09:53.527Z,22.86
2023-06-21T07:12:19.926Z,23.03
2023-06-21T07:14:46.290Z,23.04
2023-06-21T07:17:12.705Z,23.15
2023-06-21T07:19:39.170Z,23.13
2023-06-21T07:22:05.792Z,23.17
2023-06-21T07:24:32.217Z,23.24
2023-06-21T07:26:58.658Z,23.21
2023-06-21T07:29:25.147Z,23.31
2023-06-21T07:31:51.569Z,23.14
2023-06-21T07:34:17.959Z,23.22
2023-06-21T07:36:44.364Z,23.38
2023-06-21T07:39:10.991Z,23.54
2023-06-21T07:41:37.505Z,23.71
2023-06-21T07:44:04.009Z,23.63
2023-06-21T07:46:30.514Z,23.62
2023-06-21T07:48:56.959Z,23.67
2023-06-21T07:51:23.360Z,23.87
2023-06-21T07:53:49.891Z,23.84
2023-06-21T07:56:16.168Z,23.81
2023-06-21T07:58:43.307Z,23.74
2023-06-21T08:01:10.013Z,23.57
2023-06-21T08:03:36.540Z,23.60
2023-06-21T08:06:02.911Z,23.83
2023-06-21T08:08:29.368Z,23.96
2023-06-21T08:10:55.780Z,24.08
2023-06-21T08:13:22.176Z,24.16
2023-06-21T08:15:48.640Z,24.23
2023-06-21T08:18:15.091Z,24.40
2023-06-21T08:20:42.043Z,24.29
2023-06-21T08:23:08.756Z,24.37
2023-06-21T08:25:35.580Z,24.52
2023-06-21T08:28:02.952Z,24.58
2023-06-21T08:30:29.361Z,24.67
2023-06-21T08:32:55.760Z,24.57
2023-06-21T08:35:22.281Z,24.79
2023-06-21T08:38:06.277Z,24.98
2023-06-21T08:40:38.597Z,25.06
2023-06-21T08:43:05.278Z,25.25
2023-06-21T08:45:31.544Z,25.35
2023-06-21T08:48:00.637Z,25.45
2023-06-21T08:50:27.310Z,25.25
2023-06-21T08:52:54.754Z,25.45
2023-06-21T08:55:22.044Z,25.63
2023-06-21T08:57:51.352Z,25.77
2023-06-21T09:00:21.570Z,26.10
2023-06-21T09:03:06.873Z,26.38
2023-06-21T09:05:42.181Z,26.30
2023-06-21T09:08:10.533Z,26.50
2023-06-21T09:10:39.768Z,26.80
2023-06-21T09:13:07.664Z,26.86
2023-06-21T09:15:34.104Z,27.10
2023-06-21T09:18:00.598Z,26.86
2023-06-21T09:20:28.621Z,26.80
2023-06-21T09:22:58.486Z,26.96
2023-06-21T09:25:28.404Z,26.85
2023-06-21T09:27:55.449Z,26.96
2023-06-21T09:30:37.253Z,27.22
2023-06-21T09:33:06.083Z,27.17
2023-06-21T09:35:33.072Z,27.11
2023-06-21T09:37:59.502Z,27.13
2023-06-21T09:40:25.980Z,27.32
2023-06-21T09:42:54.222Z,27.14
2023-06-21T09:45:21.311Z,26.93
2023-06-21T09:47:48.185Z,26.78
2023-06-21T09:50:14.740Z,27.16
2023-06-21T09:52:44.318Z,27.30
2023-06-21T09:55:17.359Z,27.53
2023-06-21T09:57:43.894Z,27.56
2023-06-21T10:00:10.441Z,27.81
2023-06-21T10:02:41.236Z,27.38
2023-06-21T10:05:19.617Z,27.65
2023-06-21T10:07:47.500Z,27.90
2023-06-21T10:10:14.623Z,27.37
2023-06-21T10:12:55.579Z,27.49
2023-06-21T10:15:23.538Z,27.88
2023-06-21T10:18:00.062Z,27.92
2023-06-21T10:20:32.033Z,28.27
2023-06-21T10:23:02.256Z,28.27
2023-06-21T10:25:30.323Z,28.15
2023-06-21T10:27:58.861Z,28.23
2023-06-21T10:30:28.607Z,28.36
2023-06-21T10:32:58.770Z,28.01
2023-06-21T10:35:28.830Z,27.38
2023-06-21T10:37:57.892Z,27.97
2023-06-21T10:40:25.785Z,28.25
2023-06-21T10:42:53.605Z,28.44
2023-06-21T10:45:20.063Z,28.52
2023-06-21T10:47:48.603Z,28.32
2023-06-21T10:50:15.221Z,28.13
2023-06-21T10:52:44.602Z,27.76
2023-06-21T10:55:12.757Z,27.90
2023-06-21T10:57:40.378Z,27.70
2023-06-21T11:00:08.521Z,27.48
2023-06-21T11:02:36.075Z,27.29
2023-06-21T11:05:22.450Z,27.44
2023-06-21T11:08:02.017Z,27.46
2023-06-21T11:10:31.664Z,27.55
2023-06-21T11:12:59.161Z,27.89
2023-06-21T11:15:26.708Z,28.05
2023-06-21T11:17:58.722Z,27.74
2023-06-21T11:20:26.895Z,27.69
2023-06-21T11:23:08.877Z,28.18
2023-06-21T11:25:36.411Z,28.20
2023-06-21T11:28:33.358Z,28.51
2023-06-21T11:30:59.874Z,29.02
2023-06-21T11:33:27.129Z,29.27
2023-06-21T11:35:53.560Z,29.22
2023-06-21T11:38:19.877Z,28.80
2023-06-21T11:40:46.317Z,29.06
2023-06-21T11:43:18.478Z,28.90
2023-06-21T11:45:56.078Z,29.27
2023-06-21T11:51:08.439Z,29.11
2023-06-21T11:53:43.682Z,28.54
2023-06-21T11:56:10.606Z,28.57
2023-06-21T11:58:38.674Z,28.94
2023-06-21T12:01:05.256Z,28.90
2023-06-21T12:03:32.181Z,28.69
2023-06-21T12:06:01.145Z,28.53
2023-06-21T12:08:31.950Z,28.40
2023-06-21T12:11:01.493Z,28.26
2023-06-21T12:13:29.072Z,28.22
2023-06-21T12:15:57.682Z,28.11
2023-06-21T12:18:26.009Z,28.00
2023-06-21T12:20:55.423Z,28.09
2023-06-21T12:23:23.391Z,27.79
2023-06-21T12:26:02.725Z,27.94
2023-06-21T12:28:32.289Z,27.69
2023-06-21T12:31:03.276Z,27.87
2023-06-21T12:33:31.752Z,28.60
2023-06-21T12:36:24.428Z,29.04
2023-06-21T12:38:57.037Z,29.41
2023-06-21T12:41:25.970Z,29.66
2023-06-21T12:43:54.873Z,29.25
2023-06-21T12:46:22.910Z,28.77
2023-06-21T12:48:59.783Z,29.26
2023-06-21T12:51:31.547Z,29.13
2023-06-21T12:54:05.154Z,29.62
2023-06-21T12:56:34.951Z,30.05
2023-06-21T12:59:05.374Z,29.89
2023-06-21T13:01:35.816Z,29.29
2023-06-21T13:04:10.835Z,29.29
2023-06-21T13:06:38.846Z,29.83
2023-06-21T13:09:06.383Z,29.99
2023-06-21T13:11:33.856Z,29.28
2023-06-21T13:14:00.472Z,29.20
2023-06-21T13:16:27.538Z,29.35
2023-06-21T13:18:55.299Z,29.36
2023-06-21T13:21:22.874Z,29.73
2023-06-21T13:23:50.318Z,30.04
2023-06-21T13:26:17.879Z,30.37
2023-06-21T13:28:44.637Z,30.27
2023-06-21T13:31:12.106Z,30.13
2023-06-21T13:33:38.729Z,30.03
2023-06-21T13:36:05.646Z,30.08
2023-06-21T13:38:32.224Z,29.89
2023-06-21T13:40:58.914Z,30.34
2023-06-21T13:43:25.751Z,29.98
2023-06-21T13:45:54.632Z,29.53
2023-06-21T13:48:21.381Z,29.95
2023-06-21T13:50:47.932Z,29.86
2023-06-21T13:53:17.812Z,29.15
2023-06-21T13:55:44.532Z,29.10
2023-06-21T13:58:11.147Z,29.89
2023-06-21T14:00:37.644Z,30.40
2023-06-21T14:03:04.250Z,30.07
2023-06-21T14:05:32.252Z,30.25
2023-06-21T14:07:58.788Z,30.37
2023-06-21T14:10:25.905Z,30.38
2023-06-21T14:12:52.994Z,30.50
2023-06-21T14:15:19.646Z,30.64
2023-06-21T14:17:46.224Z,30.71
2023-06-21T14:20:13.633Z,30.46
2023-06-21T14:22:40.493Z,30.10
2023-06-21T14:25:09.590Z,30.42
2023-06-21T14:27:36.413Z,30.46
2023-06-21T14:30:04.952Z,30.53
2023-06-21T14:32:35.990Z,30.40
2023-06-21T14:35:03.343Z,30.86
2023-06-21T14:37:30.106Z,30.64
2023-06-21T14:39:56.986Z,30.99
2023-06-21T14:42:23.967Z,30.67
2023-06-21T14:44:51.759Z,30.24
2023-06-21T14:47:18.705Z,30.06
2023-06-21T14:49:45.591Z,30.14
2023-06-21T14:52:12.398Z,30.33
2023-06-21T14:54:39.459Z,30.46
2023-06-21T14:57:06.416Z,30.77
2023-06-21T14:59:33.228Z,30.71
2023-06-21T15:02:00.170Z,30.30
2023-06-21T15:04:26.831Z,30.36
2023-06-21T15:06:53.482Z,30.51
2023-06-21T15:09:20.313Z,30.50
2023-06-21T15:11:46.897Z,30.69
2023-06-21T15:14:13.672Z,30.74
2023-06-21T15:16:45.579Z,30.77
2023-06-21T15:19:13.338Z,30.18
2023-06-21T15:21:40.571Z,30.48
2023-06-21T15:24:07.793Z,30.41
2023-06-21T15:26:34.986Z,30.62
2023-06-21T15:29:04.451Z,30.32
2023-06-21T15:31:31.490Z,29.92
2023-06-21T15:33:58.440Z,29.64
2023-06-21T15:36:24.975Z,29.54
2023-06-21T15:38:54.553Z,29.70
2023-06-21T15:41:21.285Z,29.85
2023-06-21T15:43:50.828Z,29.97
2023-06-21T15:46:25.094Z,29.74
2023-06-21T15:48:51.689Z,29.57
2023-06-21T15:51:31.264Z,29.59
2023-06-21T15:54:00.429Z,29.45
2023-06-21T15:56:28.502Z,29.37
2023-06-21T15:58:57.784Z,29.05
2023-06-21T16:01:24.579Z,28.91
2023-06-21T16:03:51.559Z,28.95
2023-06-21T16:06:19.249Z,29.00
2023-06-21T16:08:56.894Z,29.00
2023-06-21T16:11:24.038Z,29.10
2023-06-21T16:13:50.770Z,29.14
2023-06-21T16:16:17.326Z,28.84
2023-06-21T16:18:47.790Z,28.71
2023-06-21T16:21:14.877Z,28.71
2023-06-21T16:23:42.466Z,28.67
2023-06-21T16:26:09.032Z,28.56
2023-06-21T16:28:35.661Z,28.51
2023-06-21T16:31:02.408Z,28.42
2023-06-21T16:33:29.667Z,28.44
2023-06-21T16:35:56.162Z,28.44
2023-06-21T16:38:23.157Z,28.42
2023-06-21T16:40:50.131Z,28.51
2023-06-21T16:43:17.864Z,28.50
2023-06-21T16:45:45.210Z,28.49
2023-06-21T16:48:12.028Z,28.57
2023-06-21T16:50:38.648Z,28.56
2023-06-21T16:53:07.868Z,28.51
2023-06-21T16:55:35.958Z,28.60
2023-06-21T16:58:02.497Z,28.63
2023-06-21T17:00:30.799Z,28.78
2023-06-21T17:02:57.436Z,28.90
2023-06-21T17:05:25.116Z,28.82
2023-06-21T17:07:52.419Z,28.72
2023-06-21T17:10:20.029Z,28.63
2023-06-21T17:12:46.614Z,28.51
2023-06-21T17:15:13.773Z,28.45
2023-06-21T17:17:41.701Z,28.39
2023-06-21T17:20:09.414Z,28.33
2023-06-21T17:22:36.199Z,28.14
2023-06-21T17:25:04.041Z,28.10
2023-06-21T17:27:30.914Z,28.02
2023-06-21T17:29:57.466Z,27.86
2023-06-21T17:32:24.472Z,27.81
2023-06-21T17:34:51.053Z,27.69
2023-06-21T17:37:17.807Z,27.57
2023-06-21T17:39:44.335Z,27.52
2023-06-21T17:42:10.871Z,27.39
2023-06-21T17:44:37.355Z,27.22
2023-06-21T17:47:04.034Z,27.08
2023-06-21T17:49:30.823Z,27.04
2023-06-21T17:51:57.432Z,27.05
2023-06-21T17:54:24.085Z,27.02
2023-06-21T17:56:51.215Z,26.94
2023-06-21T17:59:17.753Z,26.87
2023-06-21T18:01:44.500Z,26.82
2023-06-21T18:04:12.412Z,26.71
2023-06-21T18:06:39.129Z,26.64
2023-06-21T18:09:08.995Z,26.60
2023-06-21T18:11:35.672Z,26.57
2023-06-21T18:14:02.757Z,26.50
2023-06-21T18:16:30.840Z,26.45
2023-06-21T18:18:57.762Z,26.41
2023-06-21T18:21:24.609Z,26.36
2023-06-21T18:23:51.528Z,26.37
2023-06-21T18:26:19.381Z,26.31
2023-06-21T18:28:48.883Z,26.33
2023-06-21T18:31:15.643Z,26.36
2023-06-21T18:33:42.573Z,26.25
2023-06-21T18:36:09.311Z,26.15
2023-06-21T18:38:36.118Z,26.09
2023-06-21T18:41:03.011Z,26.08
2023-06-21T18:43:30.091Z,26.03
2023-06-21T18:45:57.100Z,26.04
2023-06-21T18:48:23.828Z,25.94
2023-06-21T18:50:50.606Z,25.85
2023-06-21T18:53:17.192Z,25.80
2023-06-21T18:55:43.907Z,25.72
2023-06-21T18:58:10.364Z,25.66
2023-06-21T19:00:37.119Z,25.61
2023-06-21T19:03:04.780Z,25.54
2023-06-21T19:05:32.108Z,25.54
2023-06-21T19:07:58.882Z,25.42
2023-06-21T19:10:25.397Z,25.31
2023-06-21T19:12:52.160Z,25.23
2023-06-21T19:15:18.704Z,25.21
2023-06-21T19:17:45.304Z,25.13
2023-06-21T19:20:12.276Z,25.03
2023-06-21T19:22:40.662Z,24.93
2023-06-21T19:25:08.306Z,24.89
2023-06-21T19:27:35.639Z,24.79
2023-06-21T19:30:02.459Z,24.67
2023-06-21T19:32:29.179Z,24.73
2023-06-21T19:34:55.764Z,24.61
2023-06-21T19:37:22.326Z,24.54
2023-06-21T19:39:49.300Z,24.45
2023-06-21T19:42:15.793Z,24.42
2023-06-21T19:44:42.547Z,24.31
2023-06-21T19:47:09.123Z,24.18
2023-06-21T19:49:35.904Z,24.12
2023-06-21T19:52:02.735Z,24.06
2023-06-21T19:54:29.251Z,24.02
2023-06-21T19:56:55.942Z,23.95
2023-06-21T19:59:22.478Z,23.83
2023-06-21T20:01:49.141Z,23.80
2023-06-21T20:04:15.612Z,23.70
2023-06-21T20:06:42.071Z,23.63
2023-06-21T20:09:08.684Z,23.58
2023-06-21T20:11:35.082Z,23.53
2023-06-21T20:14:01.824Z,23.44
2023-06-21T20:16:28.393Z,23.35
2023-06-21T20:18:54.735Z,23.26
2023-06-21T20:21:21.853Z,23.19
2023-06-21T20:23:48.456Z,23.07
2023-06-21T20:26:14.936Z,23.01
2023-06-21T20:28:41.686Z,22.93
2023-06-21T20:31:08.340Z,22.87
2023-06-21T20:33:34.782Z,22.78
2023-06-21T20:36:01.271Z,22.64
2023-06-21T20:38:28.135Z,22.57
2023-06-21T20:40:54.886Z,22.51
2023-06-21T20:43:21.404Z,22.46
2023-06-21T20:45:47.844Z,22.38
2023-06-21T20:48:15.631Z,22.30
2023-06-21T20:50:42.162Z,22.25
2023-06-21T20:53:08.778Z,22.21
2023-06-21T20:55:35.602Z,22.10
2023-06-21T20:58:01.978Z,22.00
2023-06-21T21:00:28.698Z,21.95
2023-06-21T21:02:56.037Z,21.85
2023-06-21T21:05:22.726Z,21.77
2023-06-21T21:07:49.226Z,21.70
2023-06-21T21:10:15.763Z,21.63
2023-06-21T21:12:42.223Z,21.58
2023-06-21T21:15:09.689Z,21.52
2023-06-21T21:17:38.613Z,21.44
2023-06-21T21:20:07.167Z,21.36
2023-06-21T21:22:33.944Z,21.32
2023-06-21T21:25:00.804Z,21.29
2023-06-21T21:27:29.858Z,21.25
2023-06-21T21:29:56.438Z,21.16
2023-06-21T21:32:22.969Z,21.09
2023-06-21T21:34:49.737Z,21.01
2023-06-21T21:37:16.649Z,20.96
2023-06-21T21:39:43.242Z,20.92
2023-06-21T21:42:09.693Z,20.87
2023-06-21T21:44:36.614Z,20.81
2023-06-21T21:47:03.100Z,20.75
2023-06-21T21:49:29.953Z,20.69
2023-06-21T21:51:56.516Z,20.65
2023-06-21T21:54:26.006Z,20.60
2023-06-21T21:56:52.515Z,20.53
2023-06-21T21:59:18.961Z,20.49
2023-06-21T22:01:47.283Z,20.42
2023-06-21T22:04:14.447Z,20.37
2023-06-21T22:06:41.100Z,20.32
2023-06-21T22:09:07.623Z,20.30
2023-06-21T22:11:36.090Z,20.24
2023-06-21T22:14:03.905Z,20.19
2023-06-21T22:16:30.942Z,20.12
2023-06-21T22:18:57.453Z,20.06
2023-06-21T22:21:24.830Z,20.06
2023-06-21T22:23:51.585Z,19.97
2023-06-21T22:26:18.492Z,19.97
2023-06-21T22:28:45.037Z,19.89
2023-06-21T22:31:11.805Z,19.90
2023-06-21T22:33:38.488Z,19.89
2023-06-21T22:36:05.065Z,19.85
2023-06-21T22:38:31.859Z,19.86
2023-06-21T22:40:58.412Z,19.79
2023-06-21T22:43:25.193Z,19.79
2023-06-21T22:45:52.771Z,19.75
2023-06-21T22:48:19.488Z,19.74
2023-06-21T22:50:45.850Z,19.75
2023-06-21T22:53:12.614Z,19.77
2023-06-21T22:55:39.659Z,19.77
2023-06-21T22:58:06.267Z,19.78
2023-06-21T23:00:32.817Z,19.77
2023-06-21T23:03:00.311Z,19.73
2023-06-21T23:05:27.057Z,19.70
2023-06-21T23:07:53.608Z,19.69
2023-06-21T23:10:20.179Z,19.68
2023-06-21T23:12:46.700Z,19.65
2023-06-21T23:15:17.433Z,19.66
2023-06-21T23:17:44.445Z,19.64
2023-06-21T23:20:12.658Z,19.62
2023-06-21T23:22:46.909Z,19.60
2023-06-21T23:25:14.469Z,19.57
2023-06-21T23:27:42.071Z,19.54
2023-06-21T23:30:34.026Z,19.50
2023-06-21T23:33:00.808Z,19.45
2023-06-21T23:35:27.406Z,19.44
2023-06-21T23:37:54.122Z,19.42
2023-06-21T23:40:20.650Z,19.37
2023-06-21T23:42:47.165Z,19.35
2023-06-21T23:45:13.990Z,19.31
2023-06-21T23:47:40.526Z,19.32
2023-06-21T23:50:07.717Z,19.29
2023-06-21T23:52:34.619Z,19.22
2023-06-21T23:55:01.165Z,19.19
2023-06-21T23:57:27.793Z,19.12
2023-06-21T23:59:55.965Z,19.10
